To NAV CANADA Home Page Login to a new session Search on AWWS site Disclaimer Vers la page française équivalente Tips FAQ What's new on the site To the Forecasts and Observations / NOTAM section To "File a Flight Plan" website Publications and other links Update of the User's profile FIC Telephone Numbers My Weather Data Folder Route Weather Data Regional Weather Data Local Weather Data To the Forecasts and Observations / NOTAM section
Request Generated 10/27/2020 at 08:32:49 UTC . Weather information available at that time is displayed.

METAR/TAF

TORONTO/BILLY BISHOP TORONTO CITY AIRPORT/ON    (show WxCam)

METAR CYTZ 270800Z AUTO 33004KT 300V010 9SM OVC110 07/02 A3023 RMK SLP240=
METAR CYTZ 270700Z AUTO 29006KT 9SM OVC120 07/03 A3024 RMK SLP244=
METAR CYTZ 270600Z AUTO 29008KT 9SM OVC120 07/03 A3023 RMK SLP239=

TAF CYTZ 270739Z 2708/2808 29006KT P6SM BKN120 PROB30 2709/2713 1SM
BR
FM271500 03008KT P6SM BKN030 OVC080 TEMPO 2715/2718 BKN020 OVC080
FM271800 23010KT P6SM -SHRA OVC025 TEMPO 2718/2722 4SM -SHRA BR
OVC020
FM272200 25012KT P6SM SCT020 BKN030
FM280300 25008KT P6SM SCT020
RMK FCST BASED ON AUTO OBS. NXT FCST BY 271400Z=
Your time UTC time
Weather data provided by Environment Canada and NAV CANADA